createdAt,value
2024-02-26T00:05:20.260Z,15.90
2024-02-26T00:09:45.217Z,16.10
2024-02-26T00:13:51.343Z,15.03
2024-02-26T00:23:14.699Z,15.40
2024-02-26T00:27:26.882Z,15.17
2024-02-26T00:37:19.474Z,14.93
2024-02-26T01:07:02.591Z,15.53
2024-02-26T01:12:48.546Z,16.70
2024-02-26T01:43:56.996Z,15.53
2024-02-26T01:58:44.374Z,16.10
2024-02-26T02:13:46.029Z,14.53
2024-02-26T02:18:37.633Z,16.00
2024-02-26T02:27:36.959Z,15.57
2024-02-26T02:32:13.481Z,15.03
2024-02-26T02:36:36.340Z,15.07
2024-02-26T02:41:47.890Z,16.10
2024-02-26T02:46:22.944Z,15.13
2024-02-26T02:50:41.082Z,15.30
2024-02-26T02:54:57.523Z,14.83
2024-02-26T02:59:27.757Z,15.03
2024-02-26T03:03:57.768Z,15.07
2024-02-26T03:08:17.608Z,15.00
2024-02-26T03:22:41.374Z,15.13
2024-02-26T03:26:58.478Z,15.13
2024-02-26T03:31:45.542Z,15.10
2024-02-26T03:41:29.479Z,16.23
2024-02-26T03:45:51.654Z,15.33
2024-02-26T03:50:26.202Z,15.57
2024-02-26T03:54:46.339Z,16.67
2024-02-26T05:23:14.360Z,14.60
2024-02-26T05:27:31.028Z,15.60
2024-02-26T05:32:00.147Z,16.30
2024-02-26T05:36:05.864Z,14.20
2024-02-26T05:45:45.294Z,14.73
2024-02-26T05:54:25.357Z,15.13
2024-02-26T05:58:45.539Z,14.80
2024-02-26T06:03:26.340Z,14.43
2024-02-26T06:07:58.510Z,13.47
2024-02-26T06:12:19.980Z,14.70
2024-02-26T06:16:26.622Z,14.40
2024-02-26T06:36:55.159Z,12.40
2024-02-26T06:41:04.976Z,11.23
2024-02-26T06:45:18.385Z,9.83
2024-02-26T06:49:47.019Z,10.40
2024-02-26T06:53:53.162Z,9.73
2024-02-26T06:57:57.052Z,9.70
2024-02-26T07:02:02.153Z,10.57
2024-02-26T07:06:12.540Z,11.30
2024-02-26T07:10:16.518Z,11.80
2024-02-26T07:14:19.405Z,11.90
2024-02-26T07:18:30.376Z,13.23
2024-02-26T07:22:51.680Z,13.87
2024-02-26T07:26:57.307Z,13.80
2024-02-26T07:31:13.751Z,11.67
2024-02-26T07:35:21.579Z,10.63
2024-02-26T07:39:28.802Z,9.43
2024-02-26T07:43:35.190Z,9.53
2024-02-26T07:47:45.020Z,8.77
2024-02-26T07:51:59.946Z,8.43
2024-02-26T07:56:05.648Z,10.60
2024-02-26T08:00:40.903Z,10.17
2024-02-26T08:05:07.460Z,9.97
2024-02-26T08:09:15.538Z,10.00
2024-02-26T08:13:23.456Z,9.40
2024-02-26T08:22:56.694Z,8.47
2024-02-26T08:59:52.900Z,8.18
2024-02-26T09:03:59.882Z,8.13
2024-02-26T09:08:05.311Z,7.77
2024-02-26T09:12:12.532Z,8.70
2024-02-26T09:16:41.130Z,8.70
2024-02-26T09:25:34.874Z,9.23
2024-02-26T09:29:51.997Z,9.67
2024-02-26T09:34:03.442Z,9.57
2024-02-26T09:39:53.317Z,9.27
2024-02-26T09:44:22.260Z,8.60
2024-02-26T09:58:26.916Z,8.63
2024-02-26T10:03:04.899Z,8.20
2024-02-26T10:13:21.531Z,8.40
2024-02-26T10:24:28.764Z,7.33
2024-02-26T10:28:57.676Z,7.83
2024-02-26T10:33:06.552Z,8.50
2024-02-26T10:37:57.849Z,8.83
2024-02-26T10:47:05.845Z,8.60
2024-02-26T10:52:01.275Z,8.13
2024-02-26T10:56:18.426Z,7.80
2024-02-26T11:00:24.835Z,8.13
2024-02-26T11:04:35.421Z,8.13
2024-02-26T11:09:02.985Z,8.00
2024-02-26T11:13:18.562Z,8.80
2024-02-26T11:17:55.320Z,8.73
2024-02-26T11:22:15.800Z,8.80
2024-02-26T11:26:38.544Z,9.17
2024-02-26T11:31:00.781Z,8.33
2024-02-26T11:35:15.681Z,8.47
2024-02-26T11:39:22.755Z,8.43
2024-02-26T11:44:07.724Z,8.87
2024-02-26T11:48:39.832Z,7.77
2024-02-26T11:53:44.325Z,8.30
2024-02-26T11:57:49.634Z,8.70
2024-02-26T12:02:32.166Z,8.47
2024-02-26T12:07:14.493Z,8.70
2024-02-26T12:11:22.520Z,8.30
2024-02-26T12:15:36.344Z,8.17
2024-02-26T12:19:47.981Z,8.27
2024-02-26T12:23:57.811Z,8.37
2024-02-26T12:28:04.965Z,8.27
2024-02-26T12:32:20.041Z,8.20
2024-02-26T12:36:25.893Z,8.40
2024-02-26T12:40:44.329Z,8.50
2024-02-26T12:44:58.411Z,8.40
2024-02-26T12:49:28.558Z,7.53
2024-02-26T12:54:22.951Z,8.20
2024-02-26T12:58:33.141Z,8.23
2024-02-26T13:02:46.021Z,8.97
2024-02-26T13:11:33.606Z,7.77
2024-02-26T13:15:44.442Z,7.30
2024-02-26T13:20:19.742Z,7.50
2024-02-26T13:24:34.746Z,7.73
2024-02-26T13:28:56.162Z,7.20
2024-02-26T13:33:21.298Z,7.90
2024-02-26T13:37:28.979Z,7.87
2024-02-26T13:45:57.176Z,8.33
2024-02-26T13:56:08.512Z,7.70
2024-02-26T14:00:19.377Z,7.50
2024-02-26T14:04:28.097Z,7.70
2024-02-26T14:08:33.798Z,7.57
2024-02-26T14:12:52.205Z,7.67
2024-02-26T14:17:02.389Z,7.50
2024-02-26T14:21:09.386Z,7.90
2024-02-26T14:25:21.914Z,7.30
2024-02-26T14:29:32.914Z,7.70
2024-02-26T14:33:46.726Z,7.43
2024-02-26T14:37:54.680Z,8.40
2024-02-26T14:42:27.841Z,7.60
2024-02-26T14:46:47.466Z,7.93
2024-02-26T15:13:00.184Z,7.23
2024-02-26T15:17:52.319Z,7.27
2024-02-26T16:00:52.147Z,6.30
2024-02-26T16:05:06.091Z,7.00
2024-02-26T16:09:21.659Z,7.60
2024-02-26T16:13:53.660Z,7.30
2024-02-26T16:22:54.789Z,7.80
2024-02-26T16:39:12.869Z,8.50
2024-02-26T21:52:33.565Z,18.03
2024-02-26T21:56:52.168Z,17.00
2024-02-26T22:01:13.672Z,18.70
2024-02-26T22:05:33.998Z,17.33
2024-02-26T22:09:51.360Z,15.47
2024-02-26T22:14:30.324Z,15.63
2024-02-26T22:18:40.155Z,15.03
2024-02-26T22:23:08.887Z,15.27
2024-02-26T22:27:42.698Z,15.80
2024-02-26T22:32:04.920Z,16.93
2024-02-26T22:36:12.804Z,14.93
2024-02-26T22:40:28.039Z,16.77
2024-02-26T22:45:45.081Z,16.57
2024-02-26T22:51:42.072Z,16.33
2024-02-26T22:55:29.576Z,15.13
2024-02-26T23:05:06.906Z,16.33
2024-02-26T23:50:55.311Z,18.37
2024-02-26T23:55:47.301Z,16.00
